sensor_id;sensor_type;location;lat;lon;timestamp;temperature;humidity
2409;DHT22;8463;48.094;7.970;2023-04-16T00:01:43;9.20;64.80
2409;DHT22;8463;48.094;7.970;2023-04-16T00:04:09;9.20;64.00
2409;DHT22;8463;48.094;7.970;2023-04-16T00:06:35;9.30;65.50
2409;DHT22;8463;48.094;7.970;2023-04-16T00:09:01;9.30;66.00
2409;DHT22;8463;48.094;7.970;2023-04-16T00:11:26;9.20;64.70
2409;DHT22;8463;48.094;7.970;2023-04-16T00:13:55;9.10;66.70
2409;DHT22;8463;48.094;7.970;2023-04-16T00:16:23;9.10;67.50
2409;DHT22;8463;48.094;7.970;2023-04-16T00:18:49;9.00;67.10
2409;DHT22;8463;48.094;7.970;2023-04-16T00:21:14;9.00;66.80
2409;DHT22;8463;48.094;7.970;2023-04-16T00:26:07;9.00;67.60
2409;DHT22;8463;48.094;7.970;2023-04-16T00:28:33;9.00;67.00
2409;DHT22;8463;48.094;7.970;2023-04-16T00:31:00;8.90;68.30
2409;DHT22;8463;48.094;7.970;2023-04-16T00:33:28;8.90;69.00
2409;DHT22;8463;48.094;7.970;2023-04-16T00:35:54;9.00;68.20
2409;DHT22;8463;48.094;7.970;2023-04-16T00:38:20;9.00;68.50
2409;DHT22;8463;48.094;7.970;2023-04-16T00:40:46;9.00;69.00
2409;DHT22;8463;48.094;7.970;2023-04-16T00:43:20;9.00;67.60
2409;DHT22;8463;48.094;7.970;2023-04-16T00:45:46;9.10;67.70
2409;DHT22;8463;48.094;7.970;2023-04-16T00:48:12;9.10;68.10
2409;DHT22;8463;48.094;7.970;2023-04-16T00:50:37;9.20;68.20
2409;DHT22;8463;48.094;7.970;2023-04-16T00:53:04;9.30;67.00
2409;DHT22;8463;48.094;7.970;2023-04-16T00:55:30;9.40;67.80
2409;DHT22;8463;48.094;7.970;2023-04-16T00:57:55;9.40;68.30
2409;DHT22;8463;48.094;7.970;2023-04-16T01:00:23;9.60;67.10
2409;DHT22;8463;48.094;7.970;2023-04-16T01:02:52;9.50;67.40
2409;DHT22;8463;48.094;7.970;2023-04-16T01:05:19;9.50;66.50
2409;DHT22;8463;48.094;7.970;2023-04-16T01:07:45;9.50;67.10
2409;DHT22;8463;48.094;7.970;2023-04-16T01:10:10;9.40;66.40
2409;DHT22;8463;48.094;7.970;2023-04-16T01:12:36;9.40;67.90
2409;DHT22;8463;48.094;7.970;2023-04-16T01:15:02;9.40;66.40
2409;DHT22;8463;48.094;7.970;2023-04-16T01:17:27;9.40;66.90
2409;DHT22;8463;48.094;7.970;2023-04-16T01:19:58;9.50;67.20
2409;DHT22;8463;48.094;7.970;2023-04-16T01:22:25;9.60;66.90
2409;DHT22;8463;48.094;7.970;2023-04-16T01:24:51;9.60;67.40
2409;DHT22;8463;48.094;7.970;2023-04-16T01:27:19;9.70;67.30
2409;DHT22;8463;48.094;7.970;2023-04-16T01:29:45;9.70;65.30
2409;DHT22;8463;48.094;7.970;2023-04-16T01:32:11;9.50;64.40
2409;DHT22;8463;48.094;7.970;2023-04-16T01:34:36;9.40;65.30
2409;DHT22;8463;48.094;7.970;2023-04-16T01:37:03;9.50;66.20
2409;DHT22;8463;48.094;7.970;2023-04-16T01:39:28;9.30;64.80
2409;DHT22;8463;48.094;7.970;2023-04-16T01:41:54;9.20;65.70
2409;DHT22;8463;48.094;7.970;2023-04-16T01:44:19;9.20;66.20
2409;DHT22;8463;48.094;7.970;2023-04-16T01:46:47;9.20;66.90
2409;DHT22;8463;48.094;7.970;2023-04-16T01:49:13;9.00;67.60
2409;DHT22;8463;48.094;7.970;2023-04-16T01:51:38;9.00;68.00
2409;DHT22;8463;48.094;7.970;2023-04-16T01:54:04;9.00;68.70
2409;DHT22;8463;48.094;7.970;2023-04-16T01:56:30;9.00;69.20
2409;DHT22;8463;48.094;7.970;2023-04-16T01:58:55;9.20;67.70
2409;DHT22;8463;48.094;7.970;2023-04-16T02:01:21;9.30;68.50
2409;DHT22;8463;48.094;7.970;2023-04-16T02:03:47;9.40;67.90
2409;DHT22;8463;48.094;7.970;2023-04-16T02:08:39;9.30;66.40
2409;DHT22;8463;48.094;7.970;2023-04-16T02:11:06;9.30;65.90
2409;DHT22;8463;48.094;7.970;2023-04-16T02:13:31;9.20;66.10
2409;DHT22;8463;48.094;7.970;2023-04-16T02:16:00;9.00;66.90
2409;DHT22;8463;48.094;7.970;2023-04-16T02:18:27;9.10;68.50
2409;DHT22;8463;48.094;7.970;2023-04-16T02:20:52;9.20;69.00
2409;DHT22;8463;48.094;7.970;2023-04-16T02:23:18;9.10;68.60
2409;DHT22;8463;48.094;7.970;2023-04-16T02:25:45;9.10;69.10
2409;DHT22;8463;48.094;7.970;2023-04-16T02:28:13;9.10;69.50
2409;DHT22;8463;48.094;7.970;2023-04-16T02:30:39;9.10;69.60
2409;DHT22;8463;48.094;7.970;2023-04-16T02:33:07;9.20;69.20
2409;DHT22;8463;48.094;7.970;2023-04-16T02:35:36;9.20;69.60
2409;DHT22;8463;48.094;7.970;2023-04-16T02:38:03;9.20;67.70
2409;DHT22;8463;48.094;7.970;2023-04-16T02:40:30;9.00;68.10
2409;DHT22;8463;48.094;7.970;2023-04-16T02:42:55;8.90;69.70
2409;DHT22;8463;48.094;7.970;2023-04-16T02:45:22;8.90;70.20
2409;DHT22;8463;48.094;7.970;2023-04-16T02:47:48;9.00;71.20
2409;DHT22;8463;48.094;7.970;2023-04-16T02:50:14;9.00;69.70
2409;DHT22;8463;48.094;7.970;2023-04-16T02:52:39;9.00;70.50
2409;DHT22;8463;48.094;7.970;2023-04-16T02:55:05;9.10;71.00
2409;DHT22;8463;48.094;7.970;2023-04-16T02:57:32;9.20;70.60
2409;DHT22;8463;48.094;7.970;2023-04-16T02:59:58;9.20;70.50
2409;DHT22;8463;48.094;7.970;2023-04-16T03:02:27;9.30;69.70
2409;DHT22;8463;48.094;7.970;2023-04-16T03:04:53;9.30;69.40
2409;DHT22;8463;48.094;7.970;2023-04-16T03:07:21;9.30;69.20
2409;DHT22;8463;48.094;7.970;2023-04-16T03:09:47;9.30;69.10
2409;DHT22;8463;48.094;7.970;2023-04-16T03:12:12;9.30;69.30
2409;DHT22;8463;48.094;7.970;2023-04-16T03:14:41;9.30;69.70
2409;DHT22;8463;48.094;7.970;2023-04-16T03:17:07;9.30;70.20
2409;DHT22;8463;48.094;7.970;2023-04-16T03:19:32;9.40;69.20
2409;DHT22;8463;48.094;7.970;2023-04-16T03:21:58;9.30;68.30
2409;DHT22;8463;48.094;7.970;2023-04-16T03:24:24;9.10;70.20
2409;DHT22;8463;48.094;7.970;2023-04-16T03:26:59;9.10;70.70
2409;DHT22;8463;48.094;7.970;2023-04-16T03:29:26;8.90;71.00
2409;DHT22;8463;48.094;7.970;2023-04-16T03:31:51;8.80;71.50
2409;DHT22;8463;48.094;7.970;2023-04-16T03:34:17;8.80;72.40
2409;DHT22;8463;48.094;7.970;2023-04-16T03:36:43;8.90;73.00
2409;DHT22;8463;48.094;7.970;2023-04-16T03:39:08;9.10;73.10
2409;DHT22;8463;48.094;7.970;2023-04-16T03:41:40;9.20;72.90
2409;DHT22;8463;48.094;7.970;2023-04-16T03:44:05;9.20;71.60
2409;DHT22;8463;48.094;7.970;2023-04-16T03:46:34;9.10;70.50
2409;DHT22;8463;48.094;7.970;2023-04-16T03:49:00;9.10;69.80
2409;DHT22;8463;48.094;7.970;2023-04-16T03:51:26;9.00;69.40
2409;DHT22;8463;48.094;7.970;2023-04-16T03:53:51;9.00;70.90
2409;DHT22;8463;48.094;7.970;2023-04-16T03:56:17;9.10;71.00
2409;DHT22;8463;48.094;7.970;2023-04-16T03:58:43;9.10;70.00
2409;DHT22;8463;48.094;7.970;2023-04-16T04:01:10;9.00;71.40
2409;DHT22;8463;48.094;7.970;2023-04-16T04:03:36;9.00;72.20
2409;DHT22;8463;48.094;7.970;2023-04-16T04:06:06;9.00;72.20
2409;DHT22;8463;48.094;7.970;2023-04-16T04:08:32;9.00;72.00
2409;DHT22;8463;48.094;7.970;2023-04-16T04:10:58;9.10;72.20
2409;DHT22;8463;48.094;7.970;2023-04-16T04:13:23;9.10;70.90
2409;DHT22;8463;48.094;7.970;2023-04-16T04:15:49;9.10;70.80
2409;DHT22;8463;48.094;7.970;2023-04-16T04:18:18;9.10;69.70
2409;DHT22;8463;48.094;7.970;2023-04-16T04:20:44;9.10;70.20
2409;DHT22;8463;48.094;7.970;2023-04-16T04:23:10;9.10;70.50
2409;DHT22;8463;48.094;7.970;2023-04-16T04:25:35;9.20;69.60
2409;DHT22;8463;48.094;7.970;2023-04-16T04:28:01;9.00;69.70
2409;DHT22;8463;48.094;7.970;2023-04-16T04:30:27;8.90;71.00
2409;DHT22;8463;48.094;7.970;2023-04-16T04:32:52;8.90;71.20
2409;DHT22;8463;48.094;7.970;2023-04-16T04:35:19;8.90;71.90
2409;DHT22;8463;48.094;7.970;2023-04-16T04:37:44;8.90;72.60
2409;DHT22;8463;48.094;7.970;2023-04-16T04:40:10;8.80;71.70
2409;DHT22;8463;48.094;7.970;2023-04-16T04:42:36;8.80;72.10
2409;DHT22;8463;48.094;7.970;2023-04-16T04:45:03;8.80;72.50
2409;DHT22;8463;48.094;7.970;2023-04-16T04:47:28;8.80;72.00
2409;DHT22;8463;48.094;7.970;2023-04-16T04:49:54;8.80;73.10
2409;DHT22;8463;48.094;7.970;2023-04-16T04:52:20;8.80;73.50
2409;DHT22;8463;48.094;7.970;2023-04-16T04:54:46;9.00;73.90
2409;DHT22;8463;48.094;7.970;2023-04-16T04:57:11;9.00;74.40
2409;DHT22;8463;48.094;7.970;2023-04-16T04:59:39;9.00;72.50
2409;DHT22;8463;48.094;7.970;2023-04-16T05:02:07;9.00;72.90
2409;DHT22;8463;48.094;7.970;2023-04-16T05:04:35;9.20;71.70
2409;DHT22;8463;48.094;7.970;2023-04-16T05:07:03;9.20;71.50
2409;DHT22;8463;48.094;7.970;2023-04-16T05:09:32;9.20;71.90
2409;DHT22;8463;48.094;7.970;2023-04-16T05:11:57;9.20;70.10
2409;DHT22;8463;48.094;7.970;2023-04-16T05:14:23;9.10;68.70
2409;DHT22;8463;48.094;7.970;2023-04-16T05:16:49;9.00;70.60
2409;DHT22;8463;48.094;7.970;2023-04-16T05:19:16;9.10;70.80
2409;DHT22;8463;48.094;7.970;2023-04-16T05:21:42;9.10;70.20
2409;DHT22;8463;48.094;7.970;2023-04-16T05:24:07;9.10;68.60
2409;DHT22;8463;48.094;7.970;2023-04-16T05:26:33;9.10;69.00
2409;DHT22;8463;48.094;7.970;2023-04-16T05:28:59;9.00;70.00
2409;DHT22;8463;48.094;7.970;2023-04-16T05:31:25;9.10;69.20
2409;DHT22;8463;48.094;7.970;2023-04-16T05:33:51;9.10;67.80
2409;DHT22;8463;48.094;7.970;2023-04-16T05:36:21;9.10;67.70
2409;DHT22;8463;48.094;7.970;2023-04-16T05:38:47;9.10;65.80
2409;DHT22;8463;48.094;7.970;2023-04-16T05:41:13;9.10;65.20
2409;DHT22;8463;48.094;7.970;2023-04-16T05:43:41;9.20;65.00
2409;DHT22;8463;48.094;7.970;2023-04-16T05:46:06;9.20;64.20
2409;DHT22;8463;48.094;7.970;2023-04-16T05:48:32;9.20;64.70
2409;DHT22;8463;48.094;7.970;2023-04-16T05:50:58;9.20;63.50
2409;DHT22;8463;48.094;7.970;2023-04-16T05:53:23;9.20;63.20
2409;DHT22;8463;48.094;7.970;2023-04-16T05:58:21;9.20;62.80
2409;DHT22;8463;48.094;7.970;2023-04-16T06:00:47;9.30;63.60
2409;DHT22;8463;48.094;7.970;2023-04-16T06:03:12;9.30;62.60
2409;DHT22;8463;48.094;7.970;2023-04-16T06:05:38;9.30;63.00
2409;DHT22;8463;48.094;7.970;2023-04-16T06:08:04;9.30;63.20
2409;DHT22;8463;48.094;7.970;2023-04-16T06:10:29;9.30;63.70
2409;DHT22;8463;48.094;7.970;2023-04-16T06:12:55;9.30;63.50
2409;DHT22;8463;48.094;7.970;2023-04-16T06:15:22;9.20;62.10
2409;DHT22;8463;48.094;7.970;2023-04-16T06:17:48;9.20;62.20
2409;DHT22;8463;48.094;7.970;2023-04-16T06:20:14;9.20;62.00
2409;DHT22;8463;48.094;7.970;2023-04-16T06:22:42;9.30;62.00
2409;DHT22;8463;48.094;7.970;2023-04-16T06:25:08;9.30;61.70
2409;DHT22;8463;48.094;7.970;2023-04-16T06:27:33;9.20;61.00
2409;DHT22;8463;48.094;7.970;2023-04-16T06:29:59;9.20;61.50
2409;DHT22;8463;48.094;7.970;2023-04-16T06:32:25;9.10;60.20
2409;DHT22;8463;48.094;7.970;2023-04-16T06:34:51;9.10;60.60
2409;DHT22;8463;48.094;7.970;2023-04-16T06:37:16;9.40;74.30
2409;DHT22;8463;48.094;7.970;2023-04-16T06:39:42;9.50;66.40
2409;DHT22;8463;48.094;7.970;2023-04-16T06:42:07;9.50;61.40
2409;DHT22;8463;48.094;7.970;2023-04-16T06:44:34;9.40;59.50
2409;DHT22;8463;48.094;7.970;2023-04-16T06:47:00;9.40;60.00
2409;DHT22;8463;48.094;7.970;2023-04-16T06:49:25;9.40;60.30
2409;DHT22;8463;48.094;7.970;2023-04-16T06:51:51;9.20;60.80
2409;DHT22;8463;48.094;7.970;2023-04-16T06:54:17;9.20;61.20
2409;DHT22;8463;48.094;7.970;2023-04-16T06:56:44;9.30;62.20
2409;DHT22;8463;48.094;7.970;2023-04-16T06:59:10;9.30;62.90
2409;DHT22;8463;48.094;7.970;2023-04-16T07:01:35;9.30;63.10
2409;DHT22;8463;48.094;7.970;2023-04-16T07:04:01;9.30;63.20
2409;DHT22;8463;48.094;7.970;2023-04-16T07:08:53;9.10;62.90
2409;DHT22;8463;48.094;7.970;2023-04-16T07:11:19;8.90;65.00
2409;DHT22;8463;48.094;7.970;2023-04-16T07:13:45;8.80;65.80
2409;DHT22;8463;48.094;7.970;2023-04-16T07:16:11;8.80;66.20
2409;DHT22;8463;48.094;7.970;2023-04-16T07:18:36;8.90;67.30
2409;DHT22;8463;48.094;7.970;2023-04-16T07:21:03;9.00;67.60
2409;DHT22;8463;48.094;7.970;2023-04-16T07:23:29;9.20;67.70
2409;DHT22;8463;48.094;7.970;2023-04-16T07:25:55;9.20;66.90
2409;DHT22;8463;48.094;7.970;2023-04-16T07:28:21;9.30;65.90
2409;DHT22;8463;48.094;7.970;2023-04-16T07:30:49;9.20;64.60
2409;DHT22;8463;48.094;7.970;2023-04-16T07:33:15;9.00;65.50
2409;DHT22;8463;48.094;7.970;2023-04-16T07:35:40;9.10;67.00
2409;DHT22;8463;48.094;7.970;2023-04-16T07:38:06;9.00;67.10
2409;DHT22;8463;48.094;7.970;2023-04-16T07:40:32;8.80;67.40
2409;DHT22;8463;48.094;7.970;2023-04-16T07:42:57;8.60;69.80
2409;DHT22;8463;48.094;7.970;2023-04-16T07:47:49;8.60;71.30
2409;DHT22;8463;48.094;7.970;2023-04-16T07:50:15;8.50;72.10
2409;DHT22;8463;48.094;7.970;2023-04-16T07:52:41;8.60;73.10
2409;DHT22;8463;48.094;7.970;2023-04-16T07:55:08;8.60;72.20
2409;DHT22;8463;48.094;7.970;2023-04-16T07:57:34;8.70;72.10
2409;DHT22;8463;48.094;7.970;2023-04-16T08:00:02;8.60;71.20
2409;DHT22;8463;48.094;7.970;2023-04-16T08:02:29;8.60;71.80
2409;DHT22;8463;48.094;7.970;2023-04-16T08:04:55;8.60;70.90
2409;DHT22;8463;48.094;7.970;2023-04-16T08:07:21;8.70;70.40
2409;DHT22;8463;48.094;7.970;2023-04-16T08:09:47;8.60;71.50
2409;DHT22;8463;48.094;7.970;2023-04-16T08:12:14;8.60;71.20
2409;DHT22;8463;48.094;7.970;2023-04-16T08:14:41;8.60;71.00
2409;DHT22;8463;48.094;7.970;2023-04-16T08:17:07;8.60;70.90
2409;DHT22;8463;48.094;7.970;2023-04-16T08:19:33;8.50;72.20
2409;DHT22;8463;48.094;7.970;2023-04-16T08:21:58;8.50;72.30
2409;DHT22;8463;48.094;7.970;2023-04-16T08:26:50;8.70;72.20
2409;DHT22;8463;48.094;7.970;2023-04-16T08:29:16;8.60;72.50
2409;DHT22;8463;48.094;7.970;2023-04-16T08:31:42;8.70;71.80
2409;DHT22;8463;48.094;7.970;2023-04-16T08:34:09;8.70;70.30
2409;DHT22;8463;48.094;7.970;2023-04-16T08:36:35;8.70;71.10
2409;DHT22;8463;48.094;7.970;2023-04-16T08:41:30;8.60;72.50
2409;DHT22;8463;48.094;7.970;2023-04-16T08:43:59;8.50;73.10
2409;DHT22;8463;48.094;7.970;2023-04-16T08:48:57;8.80;73.30
2409;DHT22;8463;48.094;7.970;2023-04-16T08:51:24;8.80;73.80
2409;DHT22;8463;48.094;7.970;2023-04-16T08:53:58;8.80;72.00
2409;DHT22;8463;48.094;7.970;2023-04-16T08:56:28;8.70;72.10
2409;DHT22;8463;48.094;7.970;2023-04-16T08:58:56;8.70;72.60
2409;DHT22;8463;48.094;7.970;2023-04-16T09:01:24;8.70;71.70
2409;DHT22;8463;48.094;7.970;2023-04-16T09:03:51;8.70;72.50
2409;DHT22;8463;48.094;7.970;2023-04-16T09:06:18;8.80;71.60
2409;DHT22;8463;48.094;7.970;2023-04-16T09:08:44;8.80;71.80
2409;DHT22;8463;48.094;7.970;2023-04-16T09:11:12;8.90;71.70
2409;DHT22;8463;48.094;7.970;2023-04-16T09:13:38;8.90;71.40
2409;DHT22;8463;48.094;7.970;2023-04-16T09:16:06;9.00;71.40
2409;DHT22;8463;48.094;7.970;2023-04-16T09:18:33;9.10;70.90
2409;DHT22;8463;48.094;7.970;2023-04-16T09:21:00;9.20;69.80
2409;DHT22;8463;48.094;7.970;2023-04-16T09:23:28;9.20;67.60
2409;DHT22;8463;48.094;7.970;2023-04-16T09:25:54;9.00;67.90
2409;DHT22;8463;48.094;7.970;2023-04-16T09:28:41;9.00;68.60
2409;DHT22;8463;48.094;7.970;2023-04-16T09:31:09;9.10;69.30
2409;DHT22;8463;48.094;7.970;2023-04-16T09:33:35;9.20;69.40
2409;DHT22;8463;48.094;7.970;2023-04-16T09:36:01;9.20;69.00
2409;DHT22;8463;48.094;7.970;2023-04-16T09:38:45;9.00;70.00
2409;DHT22;8463;48.094;7.970;2023-04-16T09:41:11;8.90;70.10
2409;DHT22;8463;48.094;7.970;2023-04-16T09:43:38;8.80;71.10
2409;DHT22;8463;48.094;7.970;2023-04-16T09:46:03;8.80;71.80
2409;DHT22;8463;48.094;7.970;2023-04-16T09:48:31;8.80;71.60
2409;DHT22;8463;48.094;7.970;2023-04-16T09:50:58;8.80;72.40
2409;DHT22;8463;48.094;7.970;2023-04-16T09:53:25;8.70;71.50
2409;DHT22;8463;48.094;7.970;2023-04-16T09:55:55;8.80;72.50
2409;DHT22;8463;48.094;7.970;2023-04-16T09:58:25;8.80;71.50
2409;DHT22;8463;48.094;7.970;2023-04-16T10:01:11;8.80;72.20
2409;DHT22;8463;48.094;7.970;2023-04-16T10:03:38;8.90;71.90
2409;DHT22;8463;48.094;7.970;2023-04-16T10:06:23;8.90;72.00
2409;DHT22;8463;48.094;7.970;2023-04-16T10:08:52;9.10;72.80
2409;DHT22;8463;48.094;7.970;2023-04-16T10:11:21;9.20;73.00
2409;DHT22;8463;48.094;7.970;2023-04-16T10:13:47;9.30;72.50
2409;DHT22;8463;48.094;7.970;2023-04-16T10:16:13;9.40;72.00
2409;DHT22;8463;48.094;7.970;2023-04-16T10:18:44;9.40;70.90
2409;DHT22;8463;48.094;7.970;2023-04-16T10:21:10;9.40;69.50
2409;DHT22;8463;48.094;7.970;2023-04-16T10:23:41;9.40;68.40
2409;DHT22;8463;48.094;7.970;2023-04-16T10:26:07;9.40;67.40
2409;DHT22;8463;48.094;7.970;2023-04-16T10:28:33;9.40;66.70
2409;DHT22;8463;48.094;7.970;2023-04-16T10:31:04;9.40;65.70
2409;DHT22;8463;48.094;7.970;2023-04-16T10:33:34;9.30;64.40
2409;DHT22;8463;48.094;7.970;2023-04-16T10:38:33;9.30;64.60
2409;DHT22;8463;48.094;7.970;2023-04-16T10:41:02;9.20;63.60
2409;DHT22;8463;48.094;7.970;2023-04-16T10:43:29;9.30;65.20
2409;DHT22;8463;48.094;7.970;2023-04-16T10:45:56;9.30;65.20
2409;DHT22;8463;48.094;7.970;2023-04-16T10:48:23;9.30;64.50
2409;DHT22;8463;48.094;7.970;2023-04-16T10:50:54;9.40;64.10
2409;DHT22;8463;48.094;7.970;2023-04-16T10:53:25;9.40;64.80
2409;DHT22;8463;48.094;7.970;2023-04-16T10:56:09;9.50;65.20
2409;DHT22;8463;48.094;7.970;2023-04-16T10:58:36;9.50;65.50
2409;DHT22;8463;48.094;7.970;2023-04-16T11:01:12;9.60;66.20
2409;DHT22;8463;48.094;7.970;2023-04-16T11:03:48;9.70;65.20
2409;DHT22;8463;48.094;7.970;2023-04-16T11:06:15;9.60;64.10
2409;DHT22;8463;48.094;7.970;2023-04-16T11:08:44;9.60;62.80
2409;DHT22;8463;48.094;7.970;2023-04-16T11:11:11;9.70;63.10
2409;DHT22;8463;48.094;7.970;2023-04-16T11:13:37;9.80;61.10
2409;DHT22;8463;48.094;7.970;2023-04-16T11:16:03;9.90;58.30
2409;DHT22;8463;48.094;7.970;2023-04-16T11:18:29;10.00;57.50
2409;DHT22;8463;48.094;7.970;2023-04-16T11:20:55;10.10;57.00
2409;DHT22;8463;48.094;7.970;2023-04-16T11:23:21;10.20;57.00
2409;DHT22;8463;48.094;7.970;2023-04-16T11:25:46;10.20;57.70
2409;DHT22;8463;48.094;7.970;2023-04-16T11:28:12;10.30;56.80
2409;DHT22;8463;48.094;7.970;2023-04-16T11:30:38;10.40;56.80
2409;DHT22;8463;48.094;7.970;2023-04-16T11:33:10;10.50;55.30
2409;DHT22;8463;48.094;7.970;2023-04-16T11:35:36;10.50;53.30
2409;DHT22;8463;48.094;7.970;2023-04-16T11:38:07;10.40;52.10
2409;DHT22;8463;48.094;7.970;2023-04-16T11:40:33;10.10;52.80
2409;DHT22;8463;48.094;7.970;2023-04-16T11:43:14;10.00;55.00
2409;DHT22;8463;48.094;7.970;2023-04-16T11:45:55;9.90;56.70
2409;DHT22;8463;48.094;7.970;2023-04-16T11:48:21;9.80;59.20
2409;DHT22;8463;48.094;7.970;2023-04-16T11:50:57;9.80;60.70
2409;DHT22;8463;48.094;7.970;2023-04-16T11:53:23;9.90;61.00
2409;DHT22;8463;48.094;7.970;2023-04-16T11:55:49;10.00;59.60
2409;DHT22;8463;48.094;7.970;2023-04-16T11:58:14;10.00;59.10
2409;DHT22;8463;48.094;7.970;2023-04-16T12:00:41;10.00;55.00
2409;DHT22;8463;48.094;7.970;2023-04-16T12:03:07;10.10;54.60
2409;DHT22;8463;48.094;7.970;2023-04-16T12:05:36;10.10;53.30
2409;DHT22;8463;48.094;7.970;2023-04-16T12:08:10;10.10;53.20
2409;DHT22;8463;48.094;7.970;2023-04-16T12:10:53;10.10;53.30
2409;DHT22;8463;48.094;7.970;2023-04-16T12:13:19;10.00;52.90
2409;DHT22;8463;48.094;7.970;2023-04-16T12:15:52;10.00;54.10
2409;DHT22;8463;48.094;7.970;2023-04-16T12:18:20;10.10;55.00
2409;DHT22;8463;48.094;7.970;2023-04-16T12:20:51;10.10;54.60
2409;DHT22;8463;48.094;7.970;2023-04-16T12:23:27;10.00;55.60
2409;DHT22;8463;48.094;7.970;2023-04-16T12:25:53;9.90;57.00
2409;DHT22;8463;48.094;7.970;2023-04-16T12:28:33;10.00;56.60
2409;DHT22;8463;48.094;7.970;2023-04-16T12:30:59;10.00;56.90
2409;DHT22;8463;48.094;7.970;2023-04-16T12:33:25;10.10;57.00
2409;DHT22;8463;48.094;7.970;2023-04-16T12:35:51;10.10;54.90
2409;DHT22;8463;48.094;7.970;2023-04-16T12:38:19;10.00;52.90
2409;DHT22;8463;48.094;7.970;2023-04-16T12:40:45;10.00;53.90
2409;DHT22;8463;48.094;7.970;2023-04-16T12:43:11;10.00;54.60
2409;DHT22;8463;48.094;7.970;2023-04-16T12:45:40;10.00;54.40
2409;DHT22;8463;48.094;7.970;2023-04-16T12:48:06;10.10;54.40
2409;DHT22;8463;48.094;7.970;2023-04-16T12:50:32;10.00;54.20
2409;DHT22;8463;48.094;7.970;2023-04-16T12:52:57;10.10;53.50
2409;DHT22;8463;48.094;7.970;2023-04-16T12:55:24;10.10;53.80
2409;DHT22;8463;48.094;7.970;2023-04-16T12:57:50;10.20;55.20
2409;DHT22;8463;48.094;7.970;2023-04-16T13:00:19;10.20;55.30
2409;DHT22;8463;48.094;7.970;2023-04-16T13:02:45;10.10;51.80
2409;DHT22;8463;48.094;7.970;2023-04-16T13:05:11;10.10;51.80
2409;DHT22;8463;48.094;7.970;2023-04-16T13:07:39;10.10;51.90
2409;DHT22;8463;48.094;7.970;2023-04-16T13:10:05;10.00;53.90
2409;DHT22;8463;48.094;7.970;2023-04-16T13:12:31;10.10;54.10
2409;DHT22;8463;48.094;7.970;2023-04-16T13:14:57;10.10;54.10
2409;DHT22;8463;48.094;7.970;2023-04-16T13:17:22;10.10;53.20
2409;DHT22;8463;48.094;7.970;2023-04-16T13:19:48;10.00;52.30
2409;DHT22;8463;48.094;7.970;2023-04-16T13:22:14;10.00;52.30
2409;DHT22;8463;48.094;7.970;2023-04-16T13:24:40;10.00;53.10
2409;DHT22;8463;48.094;7.970;2023-04-16T13:27:06;10.10;54.50
2409;DHT22;8463;48.094;7.970;2023-04-16T13:29:33;10.30;56.20
2409;DHT22;8463;48.094;7.970;2023-04-16T13:32:01;10.30;56.70
2409;DHT22;8463;48.094;7.970;2023-04-16T13:34:28;10.30;57.60
2409;DHT22;8463;48.094;7.970;2023-04-16T13:36:53;10.30;57.40
2409;DHT22;8463;48.094;7.970;2023-04-16T13:39:19;10.30;53.30
2409;DHT22;8463;48.094;7.970;2023-04-16T13:41:45;10.20;53.50
2409;DHT22;8463;48.094;7.970;2023-04-16T13:44:13;10.00;55.80
2409;DHT22;8463;48.094;7.970;2023-04-16T13:46:39;10.10;56.30
2409;DHT22;8463;48.094;7.970;2023-04-16T13:49:08;10.00;53.90
2409;DHT22;8463;48.094;7.970;2023-04-16T13:51:33;10.00;54.60
2409;DHT22;8463;48.094;7.970;2023-04-16T13:53:59;10.10;56.00
2409;DHT22;8463;48.094;7.970;2023-04-16T13:56:25;10.20;56.40
2409;DHT22;8463;48.094;7.970;2023-04-16T13:58:53;10.40;57.20
2409;DHT22;8463;48.094;7.970;2023-04-16T14:01:19;10.50;57.90
2409;DHT22;8463;48.094;7.970;2023-04-16T14:03:45;10.30;59.30
2409;DHT22;8463;48.094;7.970;2023-04-16T14:06:10;10.20;59.30
2409;DHT22;8463;48.094;7.970;2023-04-16T14:08:36;10.20;60.10
2409;DHT22;8463;48.094;7.970;2023-04-16T14:11:02;10.20;58.90
2409;DHT22;8463;48.094;7.970;2023-04-16T14:13:37;10.10;60.70
2409;DHT22;8463;48.094;7.970;2023-04-16T14:16:03;10.10;60.40
2409;DHT22;8463;48.094;7.970;2023-04-16T14:18:29;10.10;60.30
2409;DHT22;8463;48.094;7.970;2023-04-16T14:20:54;10.00;58.40
2409;DHT22;8463;48.094;7.970;2023-04-16T14:23:20;9.90;59.40
2409;DHT22;8463;48.094;7.970;2023-04-16T14:25:46;9.90;61.20
2409;DHT22;8463;48.094;7.970;2023-04-16T14:28:12;9.90;59.40
2409;DHT22;8463;48.094;7.970;2023-04-16T14:30:37;9.90;60.50
2409;DHT22;8463;48.094;7.970;2023-04-16T14:33:04;9.80;60.00
2409;DHT22;8463;48.094;7.970;2023-04-16T14:35:31;9.90;61.20
2409;DHT22;8463;48.094;7.970;2023-04-16T14:37:59;10.00;60.30
2409;DHT22;8463;48.094;7.970;2023-04-16T14:40:25;10.10;61.30
2409;DHT22;8463;48.094;7.970;2023-04-16T14:42:51;10.30;62.00
2409;DHT22;8463;48.094;7.970;2023-04-16T14:45:17;10.40;62.00
2409;DHT22;8463;48.094;7.970;2023-04-16T14:47:43;10.40;61.40
2409;DHT22;8463;48.094;7.970;2023-04-16T14:50:12;10.40;60.70
2409;DHT22;8463;48.094;7.970;2023-04-16T14:52:41;10.40;60.70
2409;DHT22;8463;48.094;7.970;2023-04-16T14:55:07;10.30;63.10
2409;DHT22;8463;48.094;7.970;2023-04-16T14:57:33;10.30;63.50
2409;DHT22;8463;48.094;7.970;2023-04-16T14:59:59;10.30;63.90
2409;DHT22;8463;48.094;7.970;2023-04-16T15:02:25;10.40;64.20
2409;DHT22;8463;48.094;7.970;2023-04-16T15:04:51;10.30;65.10
2409;DHT22;8463;48.094;7.970;2023-04-16T15:07:17;10.30;65.10
2409;DHT22;8463;48.094;7.970;2023-04-16T15:09:42;10.30;64.50
2409;DHT22;8463;48.094;7.970;2023-04-16T15:14:34;10.00;66.90
2409;DHT22;8463;48.094;7.970;2023-04-16T15:17:02;9.90;68.30
2409;DHT22;8463;48.094;7.970;2023-04-16T15:19:27;9.90;69.00
2409;DHT22;8463;48.094;7.970;2023-04-16T15:21:53;9.90;69.30
2409;DHT22;8463;48.094;7.970;2023-04-16T15:24:20;9.90;69.20
2409;DHT22;8463;48.094;7.970;2023-04-16T15:26:46;9.80;68.20
2409;DHT22;8463;48.094;7.970;2023-04-16T15:31:37;9.90;68.10
2409;DHT22;8463;48.094;7.970;2023-04-16T15:34:03;10.00;67.50
2409;DHT22;8463;48.094;7.970;2023-04-16T15:36:29;10.10;67.50
2409;DHT22;8463;48.094;7.970;2023-04-16T15:38:55;10.10;67.50
2409;DHT22;8463;48.094;7.970;2023-04-16T15:41:23;10.10;68.00
2409;DHT22;8463;48.094;7.970;2023-04-16T15:43:49;9.90;69.40
2409;DHT22;8463;48.094;7.970;2023-04-16T15:46:15;9.90;70.70
2409;DHT22;8463;48.094;7.970;2023-04-16T15:48:41;9.90;70.80
2409;DHT22;8463;48.094;7.970;2023-04-16T15:51:06;10.00;70.40
2409;DHT22;8463;48.094;7.970;2023-04-16T15:53:33;9.90;70.60
2409;DHT22;8463;48.094;7.970;2023-04-16T15:55:59;9.90;71.10
2409;DHT22;8463;48.094;7.970;2023-04-16T15:58:27;9.70;71.70
2409;DHT22;8463;48.094;7.970;2023-04-16T16:00:53;9.60;72.60
2409;DHT22;8463;48.094;7.970;2023-04-16T16:03:19;9.60;71.80
2409;DHT22;8463;48.094;7.970;2023-04-16T16:05:46;9.70;71.70
2409;DHT22;8463;48.094;7.970;2023-04-16T16:08:15;9.80;70.80
2409;DHT22;8463;48.094;7.970;2023-04-16T16:10:41;9.80;71.30
2409;DHT22;8463;48.094;7.970;2023-04-16T16:13:07;9.90;70.80
2409;DHT22;8463;48.094;7.970;2023-04-16T16:15:40;9.90;68.70
2409;DHT22;8463;48.094;7.970;2023-04-16T16:18:06;9.90;68.80
2409;DHT22;8463;48.094;7.970;2023-04-16T16:20:32;9.80;67.80
2409;DHT22;8463;48.094;7.970;2023-04-16T16:22:59;9.70;68.20
2409;DHT22;8463;48.094;7.970;2023-04-16T16:25:27;9.70;69.80
2409;DHT22;8463;48.094;7.970;2023-04-16T16:27:54;9.70;70.30
2409;DHT22;8463;48.094;7.970;2023-04-16T16:30:20;9.70;71.40
2409;DHT22;8463;48.094;7.970;2023-04-16T16:32:46;9.70;71.10
2409;DHT22;8463;48.094;7.970;2023-04-16T16:35:12;9.80;71.80
2409;DHT22;8463;48.094;7.970;2023-04-16T16:37:38;9.80;71.90
2409;DHT22;8463;48.094;7.970;2023-04-16T16:40:04;9.90;71.80